FW9813 Weather Reports


Display with metric or nautical units.
time (UTC)temp
F
wind
direction
speed
MPH
gust
MPH
rain 1hr
in
rain 24hr
in
rain mn
in
humidity
%
barometer
mb
20240227111523 31 0 0.0 0.0 0.00 0.00 0.00 89 990.4
20240227110035 31 0 0.0 0.0 0.00 0.00 0.00 89 990.7
20240227104527 32 0 0.0 1.0 0.00 0.00 0.00 89 990.8
20240227103034 32 0 0.0 0.0 0.00 0.00 0.00 89 990.9
20240227101522 32 0 0.0 1.0 0.00 0.00 0.00 89 991.1
20240227100022 33 0 0.0 0.0 0.00 0.00 0.00 89 991.3
20240227094527 33 0 0.0 1.0 0.00 0.00 0.00 89 991.4
20240227093025 33 0 0.0 0.0 0.00 0.00 0.00 89 991.2
20240227091528 32 0 0.0 1.0 0.00 0.00 0.00 89 991.3
20240227090028 32 209 0.0 1.0 0.00 0.00 0.00 89 991.4
20240227084525 32 209 0.0 2.0 0.00 0.00 0.00 89 991.6
20240227083030 33 0 0.0 1.0 0.00 0.00 0.00 90 991.7
20240227081525 32 209 0.0 2.0 0.00 0.00 0.00 90 991.9
20240227080026 32 0 0.0 2.0 0.00 0.00 0.00 90 992.3
20240227074523 32 0 0.0 1.0 0.00 0.00 0.00 91 992.4
20240227073028 31 0 0.0 0.0 0.00 0.00 0.00 90 992.5
20240227071541 30 0 0.0 0.0 0.00 0.00 0.00 90 992.6
20240227070026 30 0 0.0 0.0 0.00 0.00 0.00 89 992.6
20240227064522 30 0 0.0 0.0 0.00 0.00 0.00 89 992.7
20240227063027 30 0 0.0 1.0 0.00 0.00 0.00 89 993.0
20240227061523 30 0 0.0 0.0 0.00 0.00 0.00 88 993.1
20240227060043 30 0 0.0 0.0 0.00 0.00 0.00 87 993.2
20240227054530 31 0 0.0 0.0 0.00 0.00 0.00 87 993.2
20240227053030 31 0 0.0 0.0 0.00 0.00 0.00 87 993.3
20240227051525 31 0 0.0 0.0 0.00 0.00 0.00 85 993.3
20240227050033 32 0 0.0 1.0 0.00 0.00 0.00 85 993.6
20240227044528 32 0 0.0 0.0 0.00 0.00 0.00 84 993.6
20240227043025 33 0 0.0 0.0 0.00 0.00 0.00 84 993.7
20240227041526 34 0 0.0 0.0 0.00 0.00 0.00 84 993.7
20240227040030 34 0 0.0 0.0 0.00 0.00 0.00 83 993.7
20240227034528 35 0 0.0 0.0 0.00 0.00 0.00 82 993.8
20240227033035 35 0 0.0 1.0 0.00 0.00 0.00 81 993.9
20240227031536 36 0 0.0 0.0 0.00 0.00 0.00 80 993.8
20240227030039 37 0 0.0 0.0 0.00 0.00 0.00 78 993.8
20240227024528 38 0 0.0 1.0 0.00 0.00 0.00 77 993.7
20240227023029 38 0 0.0 1.0 0.00 0.00 0.00 76 993.5
20240227021533 39 0 0.0 0.0 0.00 0.00 0.00 75 993.5
20240227020034 40 0 0.0 0.0 0.00 0.00 0.00 74 993.8
20240227014531 42 0 0.0 0.0 0.00 0.00 0.00 71 993.8
20240227013025 43 0 0.0 0.0 0.00 0.00 0.00 70 993.9
20240227011528 44 0 0.0 0.0 0.00 0.00 0.00 67 993.8
20240227010029 46 0 0.0 0.0 0.00 0.00 0.00 65 993.9
20240227004539 48 0 0.0 0.0 0.00 0.00 0.00 62 994.0
20240227003025 49 0 0.0 1.0 0.00 0.00 0.00 59 993.8
20240227001530 52 209 0.0 1.0 0.00 0.00 0.00 55 993.7
20240227000028 54 0 0.0 0.0 0.00 0.00 0.00 52 993.4
20240226234535 56 0 0.0 1.0 0.00 0.00 0.00 49 993.4
20240226233027 58 0 0.0 1.0 0.00 0.00 0.00 47 993.2
20240226231531 59 0 0.0 3.0 0.00 0.00 0.00 46 993.3
20240226230027 60 233 1.0 3.0 0.00 0.00 0.00 43 993.2
20240226224525 60 173 1.0 5.0 0.00 0.00 0.00 44 993.3
20240226223029 60 227 2.0 4.0 0.00 0.00 0.00 43 993.3
20240226221537 59 159 2.0 5.0 0.00 0.00 0.00 43 993.2
20240226220023 59 215 1.0 4.0 0.00 0.00 0.00 43 993.2
20240226214525 60 175 1.0 4.0 0.00 0.00 0.00 41 993.3
20240226213027 60 165 1.0 5.0 0.00 0.00 0.00 41 993.5
20240226211531 61 214 0.0 4.0 0.00 0.00 0.00 42 993.6
20240226210027 60 109 1.0 5.0 0.00 0.00 0.00 41 993.7
20240226204530 60 237 0.0 4.0 0.00 0.00 0.00 44 993.8
20240226203033 60 198 1.0 8.0 0.00 0.00 0.00 43 993.8
20240226201529 59 61 3.0 9.0 0.00 0.00 0.00 42 993.9
20240226200041 59 214 3.0 9.0 0.00 0.00 0.00 43 994.1
20240226194531 58 100 2.0 10.0 0.00 0.00 0.00 45 994.4
20240226193027 57 115 2.0 7.0 0.00 0.00 0.00 45 994.8
20240226191535 57 119 2.0 8.0 0.00 0.00 0.00 46 995.1
20240226190029 56 153 2.0 10.0 0.00 0.00 0.00 46 995.3
20240226184530 55 139 2.0 8.0 0.00 0.00 0.00 47 995.6
20240226183032 55 268 3.0 9.0 0.00 0.00 0.00 47 995.9
20240226181544 54 120 2.0 8.0 0.00 0.00 0.00 49 996.4
20240226180033 53 174 2.0 10.0 0.00 0.00 0.00 50 996.7
20240226174526 52 191 3.0 9.0 0.00 0.00 0.00 51 997.0
20240226173031 51 118 2.0 11.0 0.00 0.00 0.00 52 997.4
20240226171531 50 101 2.0 10.0 0.00 0.00 0.00 54 997.6
20240226170024 48 67 2.0 8.0 0.00 0.00 0.00 55 998.0
20240226164528 47 81 3.0 10.0 0.00 0.00 0.00 55 998.3
20240226163031 46 180 3.0 8.0 0.00 0.00 0.00 56 998.5
20240226161527 45 94 3.0 8.0 0.00 0.00 0.00 56 998.8
20240226160030 43 94 3.0 8.0 0.00 0.00 0.00 57 999.3
20240226154525 42 98 3.0 7.0 0.00 0.00 0.00 58 999.6
20240226153033 41 111 2.0 8.0 0.00 0.00 0.00 60 1000.1
20240226151523 40 96 3.0 7.0 0.00 0.00 0.00 61 1000.4
20240226150024 38 88 2.0 9.0 0.00 0.00 0.00 63 1000.6
20240226144534 38 78 3.0 9.0 0.00 0.00 0.00 64 1000.8
20240226143037 37 107 4.0 9.0 0.00 0.00 0.00 65 1001.0
20240226141530 36 96 3.0 8.0 0.00 0.00 0.00 66 1001.4
20240226140026 35 88 2.0 6.0 0.00 0.00 0.00 68 1001.7
20240226134533 33 76 2.0 5.0 0.00 0.00 0.00 71 1001.9
20240226133028 32 75 1.0 4.0 0.00 0.00 0.00 71 1002.1
20240226131526 32 74 2.0 4.0 0.00 0.00 0.00 71 1002.4
20240226130028 32 82 1.0 3.0 0.00 0.00 0.00 71 1002.9
20240226124523 32 91 1.0 4.0 0.00 0.00 0.00 71 1003.2
20240226123035 32 71 1.0 3.0 0.00 0.00 0.00 72 1003.6
20240226121524 31 65 2.0 4.0 0.00 0.00 0.00 73 1004.0
20240226120023 31 80 1.0 4.0 0.00 0.00 0.00 74 1004.2
20240226114524 31 72 1.0 3.0 0.00 0.00 0.00 76 1004.6
20240226113027 31 52 1.0 3.0 0.00 0.00 0.00 77 1005.0